sensor_id;sensor_type;location;lat;lon;timestamp;pressure;altitude;pressure_sealevel;temperature;humidity
71666;BME280;59503;53.486;10.196;2023-04-30T00:01:52;102296.50;;;3.92;100.00
71666;BME280;59503;53.486;10.196;2023-04-30T00:04:18;102294.41;;;3.84;100.00
71666;BME280;59503;53.486;10.196;2023-04-30T00:06:43;102300.88;;;3.83;100.00
71666;BME280;59503;53.486;10.196;2023-04-30T00:09:08;102300.41;;;3.76;100.00
71666;BME280;59503;53.486;10.196;2023-04-30T00:11:34;102300.97;;;3.68;100.00
71666;BME280;59503;53.486;10.196;2023-04-30T00:13:59;102310.13;;;3.62;100.00
71666;BME280;59503;53.486;10.196;2023-04-30T00:16:24;102302.34;;;3.60;100.00
71666;BME280;59503;53.486;10.196;2023-04-30T00:18:50;102295.84;;;3.66;100.00
71666;BME280;59503;53.486;10.196;2023-04-30T00:21:15;102316.34;;;3.62;100.00
71666;BME280;59503;53.486;10.196;2023-04-30T00:23:40;102313.09;;;3.60;100.00
71666;BME280;59503;53.486;10.196;2023-04-30T00:26:06;102310.69;;;3.64;100.00
71666;BME280;59503;53.486;10.196;2023-04-30T00:28:31;102319.81;;;3.63;100.00
71666;BME280;59503;53.486;10.196;2023-04-30T00:30:56;102317.97;;;3.53;100.00
71666;BME280;59503;53.486;10.196;2023-04-30T00:33:22;102321.25;;;3.45;100.00
71666;BME280;59503;53.486;10.196;2023-04-30T00:35:47;102318.00;;;3.48;100.00
71666;BME280;59503;53.486;10.196;2023-04-30T00:38:12;102310.56;;;3.30;100.00
71666;BME280;59503;53.486;10.196;2023-04-30T00:40:39;102323.72;;;3.32;100.00
71666;BME280;59503;53.486;10.196;2023-04-30T00:43:04;102331.53;;;3.28;100.00
71666;BME280;59503;53.486;10.196;2023-04-30T00:45:30;102329.66;;;3.24;100.00
71666;BME280;59503;53.486;10.196;2023-04-30T00:47:55;102332.63;;;3.22;100.00
71666;BME280;59503;53.486;10.196;2023-04-30T00:50:21;102334.25;;;3.18;100.00
71666;BME280;59503;53.486;10.196;2023-04-30T00:52:46;102336.94;;;3.13;100.00
71666;BME280;59503;53.486;10.196;2023-04-30T00:55:13;102333.72;;;3.11;100.00
71666;BME280;59503;53.486;10.196;2023-04-30T00:57:39;102332.63;;;3.17;100.00
71666;BME280;59503;53.486;10.196;2023-04-30T01:00:07;102337.75;;;3.14;100.00
71666;BME280;59503;53.486;10.196;2023-04-30T01:02:36;102337.75;;;3.09;100.00
71666;BME280;59503;53.486;10.196;2023-04-30T01:05:03;102344.47;;;3.11;100.00
71666;BME280;59503;53.486;10.196;2023-04-30T01:07:29;102344.22;;;3.03;100.00
71666;BME280;59503;53.486;10.196;2023-04-30T01:09:55;102340.75;;;2.97;100.00
71666;BME280;59503;53.486;10.196;2023-04-30T01:15:26;102344.50;;;2.96;100.00
71666;BME280;59503;53.486;10.196;2023-04-30T01:18:03;102348.28;;;2.85;100.00
71666;BME280;59503;53.486;10.196;2023-04-30T01:20:30;102345.59;;;2.80;100.00
71666;BME280;59503;53.486;10.196;2023-04-30T01:23:18;102345.06;;;2.83;100.00
71666;BME280;59503;53.486;10.196;2023-04-30T01:26:09;102345.59;;;2.80;100.00
71666;BME280;59503;53.486;10.196;2023-04-30T01:28:35;102347.22;;;2.76;100.00
71666;BME280;59503;53.486;10.196;2023-04-30T01:31:02;102346.41;;;2.76;100.00
71666;BME280;59503;53.486;10.196;2023-04-30T01:33:27;102348.84;;;2.72;100.00
71666;BME280;59503;53.486;10.196;2023-04-30T01:36:06;102350.97;;;2.70;100.00
71666;BME280;59503;53.486;10.196;2023-04-30T01:44:33;102353.13;;;2.68;100.00
71666;BME280;59503;53.486;10.196;2023-04-30T01:47:12;102349.34;;;2.64;100.00
71666;BME280;59503;53.486;10.196;2023-04-30T01:49:53;102349.63;;;2.58;100.00
71666;BME280;59503;53.486;10.196;2023-04-30T01:55:29;102358.22;;;2.34;100.00
71666;BME280;59503;53.486;10.196;2023-04-30T01:57:57;102368.66;;;2.21;100.00
71666;BME280;59503;53.486;10.196;2023-04-30T02:00:24;102364.63;;;2.13;100.00
71666;BME280;59503;53.486;10.196;2023-04-30T02:02:50;102372.16;;;2.11;100.00
71666;BME280;59503;53.486;10.196;2023-04-30T02:05:15;102374.00;;;2.06;100.00
71666;BME280;59503;53.486;10.196;2023-04-30T02:07:42;102387.38;;;1.96;100.00
71666;BME280;59503;53.486;10.196;2023-04-30T02:10:09;102378.22;;;1.82;100.00
71666;BME280;59503;53.486;10.196;2023-04-30T02:12:39;102380.88;;;1.72;100.00
71666;BME280;59503;53.486;10.196;2023-04-30T02:15:04;102379.47;;;1.54;100.00
71666;BME280;59503;53.486;10.196;2023-04-30T02:17:30;102386.34;;;1.40;100.00
71666;BME280;59503;53.486;10.196;2023-04-30T02:19:56;102386.56;;;1.28;100.00
71666;BME280;59503;53.486;10.196;2023-04-30T02:22:22;102388.63;;;1.16;100.00
71666;BME280;59503;53.486;10.196;2023-04-30T02:24:47;102393.91;;;1.06;100.00
71666;BME280;59503;53.486;10.196;2023-04-30T02:27:12;102399.50;;;1.00;100.00
71666;BME280;59503;53.486;10.196;2023-04-30T02:29:38;102395.94;;;0.89;100.00
71666;BME280;59503;53.486;10.196;2023-04-30T02:32:03;102388.91;;;0.78;100.00
71666;BME280;59503;53.486;10.196;2023-04-30T02:34:29;102404.09;;;0.73;100.00
71666;BME280;59503;53.486;10.196;2023-04-30T02:36:54;102399.78;;;0.67;100.00
71666;BME280;59503;53.486;10.196;2023-04-30T02:39:20;102400.00;;;0.60;100.00
71666;BME280;59503;53.486;10.196;2023-04-30T02:41:45;102408.78;;;0.56;100.00
71666;BME280;59503;53.486;10.196;2023-04-30T02:44:11;102399.91;;;0.50;100.00
71666;BME280;59503;53.486;10.196;2023-04-30T02:46:36;102411.09;;;0.47;100.00
71666;BME280;59503;53.486;10.196;2023-04-30T02:49:01;102401.94;;;0.38;100.00
71666;BME280;59503;53.486;10.196;2023-04-30T02:51:27;102403.50;;;0.34;100.00
71666;BME280;59503;53.486;10.196;2023-04-30T02:53:52;102409.09;;;0.33;100.00
71666;BME280;59503;53.486;10.196;2023-04-30T02:56:18;102402.63;;;0.29;100.00
71666;BME280;59503;53.486;10.196;2023-04-30T02:58:43;102406.06;;;0.24;100.00
71666;BME280;59503;53.486;10.196;2023-04-30T03:01:08;102414.34;;;0.23;100.00
71666;BME280;59503;53.486;10.196;2023-04-30T03:03:33;102398.50;;;0.16;100.00
71666;BME280;59503;53.486;10.196;2023-04-30T03:05:59;102405.47;;;0.17;100.00
71666;BME280;59503;53.486;10.196;2023-04-30T03:08:25;102415.38;;;0.17;100.00
71666;BME280;59503;53.486;10.196;2023-04-30T03:10:50;102410.50;;;0.14;100.00
71666;BME280;59503;53.486;10.196;2023-04-30T03:13:16;102409.16;;;0.11;100.00
71666;BME280;59503;53.486;10.196;2023-04-30T03:15:42;102413.69;;;0.11;100.00
71666;BME280;59503;53.486;10.196;2023-04-30T03:18:07;102408.03;;;0.07;100.00
71666;BME280;59503;53.486;10.196;2023-04-30T03:20:32;102410.38;;;0.03;100.00
71666;BME280;59503;53.486;10.196;2023-04-30T03:22:58;102418.66;;;0.02;100.00
71666;BME280;59503;53.486;10.196;2023-04-30T03:25:23;102426.16;;;0.00;100.00
71666;BME280;59503;53.486;10.196;2023-04-30T03:27:49;102422.09;;;-0.03;100.00
71666;BME280;59503;53.486;10.196;2023-04-30T03:30:14;102416.75;;;-0.03;100.00
71666;BME280;59503;53.486;10.196;2023-04-30T03:32:39;102421.53;;;-0.05;100.00
71666;BME280;59503;53.486;10.196;2023-04-30T03:35:05;102428.19;;;-0.07;100.00
71666;BME280;59503;53.486;10.196;2023-04-30T03:37:30;102412.56;;;-0.15;100.00
71666;BME280;59503;53.486;10.196;2023-04-30T03:39:56;102427.69;;;-0.04;100.00
71666;BME280;59503;53.486;10.196;2023-04-30T03:42:21;102426.63;;;-0.03;100.00
71666;BME280;59503;53.486;10.196;2023-04-30T03:44:46;102426.16;;;0.00;100.00
71666;BME280;59503;53.486;10.196;2023-04-30T03:47:12;102433.66;;;0.03;100.00
71666;BME280;59503;53.486;10.196;2023-04-30T03:49:37;102415.09;;;-0.09;100.00
71666;BME280;59503;53.486;10.196;2023-04-30T03:52:03;102428.72;;;-0.05;100.00
71666;BME280;59503;53.486;10.196;2023-04-30T03:54:29;102423.31;;;-0.10;100.00
71666;BME280;59503;53.486;10.196;2023-04-30T03:56:55;102438.63;;;-0.06;100.00
71666;BME280;59503;53.486;10.196;2023-04-30T03:59:20;102439.41;;;-0.05;100.00
71666;BME280;59503;53.486;10.196;2023-04-30T04:01:46;102432.66;;;-0.13;100.00
71666;BME280;59503;53.486;10.196;2023-04-30T04:04:11;102430.00;;;-0.13;100.00
71666;BME280;59503;53.486;10.196;2023-04-30T04:06:37;102437.19;;;-0.13;100.00
71666;BME280;59503;53.486;10.196;2023-04-30T04:09:02;102439.94;;;-0.08;100.00
71666;BME280;59503;53.486;10.196;2023-04-30T04:11:28;102447.69;;;-0.07;100.00
71666;BME280;59503;53.486;10.196;2023-04-30T04:13:54;102441.56;;;-0.07;100.00
71666;BME280;59503;53.486;10.196;2023-04-30T04:16:19;102443.97;;;0.16;100.00
71666;BME280;59503;53.486;10.196;2023-04-30T04:18:45;102440.72;;;0.14;100.00
71666;BME280;59503;53.486;10.196;2023-04-30T04:21:10;102441.22;;;0.11;100.00
71666;BME280;59503;53.486;10.196;2023-04-30T04:23:36;102444.41;;;0.08;100.00
71666;BME280;59503;53.486;10.196;2023-04-30T04:26:01;102447.88;;;0.09;100.00
71666;BME280;59503;53.486;10.196;2023-04-30T04:28:27;102435.50;;;0.03;100.00
71666;BME280;59503;53.486;10.196;2023-04-30T04:30:52;102445.19;;;0.09;100.00
71666;BME280;59503;53.486;10.196;2023-04-30T04:33:17;102452.59;;;0.23;100.00
71666;BME280;59503;53.486;10.196;2023-04-30T04:35:43;102457.94;;;0.23;100.00
71666;BME280;59503;53.486;10.196;2023-04-30T04:38:08;102466.53;;;0.25;100.00
71666;BME280;59503;53.486;10.196;2023-04-30T04:40:33;102463.91;;;0.30;100.00
71666;BME280;59503;53.486;10.196;2023-04-30T04:42:59;102465.09;;;0.44;100.00
71666;BME280;59503;53.486;10.196;2023-04-30T04:45:25;102464.91;;;0.51;100.00
71666;BME280;59503;53.486;10.196;2023-04-30T04:47:50;102457.75;;;0.56;100.00
71666;BME280;59503;53.486;10.196;2023-04-30T04:50:16;102464.47;;;0.59;100.00
71666;BME280;59503;53.486;10.196;2023-04-30T04:52:42;102473.03;;;0.61;100.00
71666;BME280;59503;53.486;10.196;2023-04-30T04:55:07;102470.66;;;0.64;100.00
71666;BME280;59503;53.486;10.196;2023-04-30T04:57:33;102474.19;;;0.70;100.00
71666;BME280;59503;53.486;10.196;2023-04-30T04:59:58;102472.38;;;0.75;100.00
71666;BME280;59503;53.486;10.196;2023-04-30T05:02:24;102485.34;;;0.88;100.00
71666;BME280;59503;53.486;10.196;2023-04-30T05:04:49;102484.91;;;1.01;100.00
71666;BME280;59503;53.486;10.196;2023-04-30T05:07:18;102486.34;;;1.09;100.00
71666;BME280;59503;53.486;10.196;2023-04-30T05:09:44;102498.47;;;1.21;100.00
71666;BME280;59503;53.486;10.196;2023-04-30T05:12:11;102485.19;;;1.37;100.00
71666;BME280;59503;53.486;10.196;2023-04-30T05:14:36;102495.28;;;1.61;100.00
71666;BME280;59503;53.486;10.196;2023-04-30T05:17:02;102499.44;;;1.89;100.00
71666;BME280;59503;53.486;10.196;2023-04-30T05:19:27;102494.69;;;2.06;100.00
71666;BME280;59503;53.486;10.196;2023-04-30T05:21:52;102493.44;;;2.28;100.00
71666;BME280;59503;53.486;10.196;2023-04-30T05:24:17;102496.44;;;2.52;100.00
71666;BME280;59503;53.486;10.196;2023-04-30T05:26:43;102493.28;;;2.75;100.00
71666;BME280;59503;53.486;10.196;2023-04-30T05:29:08;102496.81;;;3.01;100.00
71666;BME280;59503;53.486;10.196;2023-04-30T05:31:35;102503.22;;;3.25;100.00
71666;BME280;59503;53.486;10.196;2023-04-30T05:34:01;102494.34;;;3.49;100.00
71666;BME280;59503;53.486;10.196;2023-04-30T05:36:26;102512.84;;;3.81;100.00
71666;BME280;59503;53.486;10.196;2023-04-30T05:38:53;102510.31;;;4.10;100.00
71666;BME280;59503;53.486;10.196;2023-04-30T05:41:18;102515.56;;;4.40;100.00
71666;BME280;59503;53.486;10.196;2023-04-30T05:43:43;102517.56;;;4.68;100.00
71666;BME280;59503;53.486;10.196;2023-04-30T05:46:09;102514.63;;;5.03;100.00
71666;BME280;59503;53.486;10.196;2023-04-30T05:48:34;102518.78;;;5.24;100.00
71666;BME280;59503;53.486;10.196;2023-04-30T05:50:59;102516.84;;;5.58;100.00
71666;BME280;59503;53.486;10.196;2023-04-30T05:53:25;102518.25;;;5.79;100.00
71666;BME280;59503;53.486;10.196;2023-04-30T05:55:50;102514.72;;;6.07;100.00
71666;BME280;59503;53.486;10.196;2023-04-30T05:58:15;102521.81;;;6.22;100.00
71666;BME280;59503;53.486;10.196;2023-04-30T06:00:41;102524.66;;;6.54;100.00
71666;BME280;59503;53.486;10.196;2023-04-30T06:03:06;102527.06;;;6.74;100.00
71666;BME280;59503;53.486;10.196;2023-04-30T06:05:32;102531.50;;;7.02;100.00
71666;BME280;59503;53.486;10.196;2023-04-30T06:07:57;102535.63;;;7.32;100.00
71666;BME280;59503;53.486;10.196;2023-04-30T06:10:22;102524.38;;;7.57;100.00
71666;BME280;59503;53.486;10.196;2023-04-30T06:12:48;102532.63;;;7.79;100.00
71666;BME280;59503;53.486;10.196;2023-04-30T06:15:13;102533.13;;;7.95;100.00
71666;BME280;59503;53.486;10.196;2023-04-30T06:17:38;102531.44;;;8.12;100.00
71666;BME280;59503;53.486;10.196;2023-04-30T06:20:05;102517.91;;;8.26;100.00
71666;BME280;59503;53.486;10.196;2023-04-30T06:22:31;102523.53;;;8.29;97.59
71666;BME280;59503;53.486;10.196;2023-04-30T06:24:57;102537.28;;;8.46;94.53
71666;BME280;59503;53.486;10.196;2023-04-30T06:27:22;102534.13;;;8.66;89.77
71666;BME280;59503;53.486;10.196;2023-04-30T06:29:48;102538.59;;;8.85;84.75
71666;BME280;59503;53.486;10.196;2023-04-30T06:32:13;102542.78;;;9.13;82.36
71666;BME280;59503;53.486;10.196;2023-04-30T06:34:38;102540.78;;;9.18;81.46
71666;BME280;59503;53.486;10.196;2023-04-30T06:37:03;102545.31;;;9.09;77.98
71666;BME280;59503;53.486;10.196;2023-04-30T06:39:29;102555.84;;;9.11;76.81
71666;BME280;59503;53.486;10.196;2023-04-30T06:41:54;102557.97;;;9.36;75.14
71666;BME280;59503;53.486;10.196;2023-04-30T06:44:20;102551.16;;;9.69;75.93
71666;BME280;59503;53.486;10.196;2023-04-30T06:46:45;102551.66;;;9.79;72.35
71666;BME280;59503;53.486;10.196;2023-04-30T06:49:10;102545.06;;;9.94;69.04
71666;BME280;59503;53.486;10.196;2023-04-30T06:51:36;102552.22;;;9.90;66.56
71666;BME280;59503;53.486;10.196;2023-04-30T06:54:01;102553.56;;;10.01;64.78
71666;BME280;59503;53.486;10.196;2023-04-30T06:56:26;102551.06;;;9.52;63.05
71666;BME280;59503;53.486;10.196;2023-04-30T06:58:52;102561.88;;;9.74;63.17
71666;BME280;59503;53.486;10.196;2023-04-30T07:01:17;102549.72;;;10.02;60.70
71666;BME280;59503;53.486;10.196;2023-04-30T07:03:42;102551.03;;;10.13;58.53
71666;BME280;59503;53.486;10.196;2023-04-30T07:06:08;102561.31;;;10.16;59.53
71666;BME280;59503;53.486;10.196;2023-04-30T07:08:33;102566.06;;;10.58;59.52
71666;BME280;59503;53.486;10.196;2023-04-30T07:10:58;102538.56;;;11.02;53.67
71666;BME280;59503;53.486;10.196;2023-04-30T07:13:24;102557.28;;;11.04;54.69
71666;BME280;59503;53.486;10.196;2023-04-30T07:15:49;102556.69;;;10.98;53.85
71666;BME280;59503;53.486;10.196;2023-04-30T07:18:15;102556.97;;;11.05;53.58
71666;BME280;59503;53.486;10.196;2023-04-30T07:20:41;102555.69;;;11.11;52.38
71666;BME280;59503;53.486;10.196;2023-04-30T07:23:06;102561.41;;;10.59;53.59
71666;BME280;59503;53.486;10.196;2023-04-30T07:25:31;102561.75;;;10.74;54.16
71666;BME280;59503;53.486;10.196;2023-04-30T07:27:57;102562.09;;;10.90;52.27
71666;BME280;59503;53.486;10.196;2023-04-30T07:30:22;102564.50;;;11.08;52.42
71666;BME280;59503;53.486;10.196;2023-04-30T07:32:47;102564.97;;;10.76;52.02
71666;BME280;59503;53.486;10.196;2023-04-30T07:35:13;102566.25;;;11.04;53.50
71666;BME280;59503;53.486;10.196;2023-04-30T07:37:39;102563.03;;;11.54;51.60
71666;BME280;59503;53.486;10.196;2023-04-30T07:40:05;102560.63;;;11.69;51.63
71666;BME280;59503;53.486;10.196;2023-04-30T07:42:31;102569.56;;;11.61;51.22
71666;BME280;59503;53.486;10.196;2023-04-30T07:44:57;102573.41;;;11.77;50.92
71666;BME280;59503;53.486;10.196;2023-04-30T07:47:22;102573.84;;;11.88;49.26
71666;BME280;59503;53.486;10.196;2023-04-30T07:49:48;102569.38;;;12.50;48.32
71666;BME280;59503;53.486;10.196;2023-04-30T07:52:13;102565.41;;;12.47;48.20
71666;BME280;59503;53.486;10.196;2023-04-30T07:54:39;102573.63;;;12.39;48.77
71666;BME280;59503;53.486;10.196;2023-04-30T07:57:05;102562.56;;;12.06;49.66
71666;BME280;59503;53.486;10.196;2023-04-30T07:59:31;102570.25;;;12.42;48.61
71666;BME280;59503;53.486;10.196;2023-04-30T08:01:56;102564.03;;;12.62;48.24
71666;BME280;59503;53.486;10.196;2023-04-30T08:04:22;102578.84;;;12.52;45.33
71666;BME280;59503;53.486;10.196;2023-04-30T08:06:47;102575.56;;;12.38;48.06
71666;BME280;59503;53.486;10.196;2023-04-30T08:09:13;102570.13;;;12.30;47.22
71666;BME280;59503;53.486;10.196;2023-04-30T08:11:39;102566.22;;;12.69;46.95
71666;BME280;59503;53.486;10.196;2023-04-30T08:14:05;102568.22;;;13.01;46.44
71666;BME280;59503;53.486;10.196;2023-04-30T08:16:31;102572.63;;;13.34;45.15
71666;BME280;59503;53.486;10.196;2023-04-30T08:18:56;102568.72;;;13.56;44.57
71666;BME280;59503;53.486;10.196;2023-04-30T08:21:21;102577.47;;;13.49;44.72
71666;BME280;59503;53.486;10.196;2023-04-30T08:23:47;102578.59;;;13.93;45.45
71666;BME280;59503;53.486;10.196;2023-04-30T08:26:12;102578.75;;;14.45;43.36
71666;BME280;59503;53.486;10.196;2023-04-30T08:28:37;102573.31;;;14.33;41.52
71666;BME280;59503;53.486;10.196;2023-04-30T08:31:03;102574.22;;;14.49;41.77
71666;BME280;59503;53.486;10.196;2023-04-30T08:33:28;102573.97;;;14.66;41.54
71666;BME280;59503;53.486;10.196;2023-04-30T08:35:54;102576.69;;;14.78;41.50
71666;BME280;59503;53.486;10.196;2023-04-30T08:38:20;102573.00;;;14.98;41.31
71666;BME280;59503;53.486;10.196;2023-04-30T08:40:50;102584.44;;;14.88;39.71
71666;BME280;59503;53.486;10.196;2023-04-30T08:43:17;102571.56;;;15.16;41.78
71666;BME280;59503;53.486;10.196;2023-04-30T08:45:43;102582.47;;;15.56;40.18
71666;BME280;59503;53.486;10.196;2023-04-30T08:48:10;102580.22;;;16.20;38.84
71666;BME280;59503;53.486;10.196;2023-04-30T08:50:40;102574.56;;;16.44;38.84
71666;BME280;59503;53.486;10.196;2023-04-30T08:53:07;102578.91;;;16.14;36.46
71666;BME280;59503;53.486;10.196;2023-04-30T08:55:33;102570.56;;;16.42;37.02
71666;BME280;59503;53.486;10.196;2023-04-30T08:57:58;102571.00;;;16.44;36.56
71666;BME280;59503;53.486;10.196;2023-04-30T09:00:24;102562.88;;;16.32;36.38
71666;BME280;59503;53.486;10.196;2023-04-30T09:02:51;102572.44;;;16.22;36.83
71666;BME280;59503;53.486;10.196;2023-04-30T09:27:29;102522.63;;;17.08;34.30
71666;BME280;59503;53.486;10.196;2023-04-30T09:34:51;102552.91;;;15.92;37.11
71666;BME280;59503;53.486;10.196;2023-04-30T09:37:58;102527.91;;;17.17;36.29
71666;BME280;59503;53.486;10.196;2023-04-30T09:43:58;102553.53;;;17.85;35.05
71666;BME280;59503;53.486;10.196;2023-04-30T09:46:31;102530.78;;;17.88;33.83
71666;BME280;59503;53.486;10.196;2023-04-30T09:49:01;102556.72;;;17.87;32.94
71666;BME280;59503;53.486;10.196;2023-04-30T09:51:28;102504.31;;;17.58;33.93
71666;BME280;59503;53.486;10.196;2023-04-30T09:53:54;102508.84;;;17.92;32.25
71666;BME280;59503;53.486;10.196;2023-04-30T09:56:24;102543.44;;;18.15;34.01
71666;BME280;59503;53.486;10.196;2023-04-30T09:58:54;102539.59;;;17.97;33.86
71666;BME280;59503;53.486;10.196;2023-04-30T10:01:21;102503.91;;;17.78;33.31
71666;BME280;59503;53.486;10.196;2023-04-30T10:03:47;102506.13;;;16.70;33.89
71666;BME280;59503;53.486;10.196;2023-04-30T10:06:14;102501.72;;;16.15;35.66
71666;BME280;59503;53.486;10.196;2023-04-30T10:08:42;102520.66;;;16.36;35.48
71666;BME280;59503;53.486;10.196;2023-04-30T10:11:09;102501.22;;;16.45;35.00
71666;BME280;59503;53.486;10.196;2023-04-30T10:13:59;102528.81;;;17.05;33.03
71666;BME280;59503;53.486;10.196;2023-04-30T10:16:56;102526.53;;;17.68;33.70
71666;BME280;59503;53.486;10.196;2023-04-30T10:19:25;102529.84;;;17.77;33.44
71666;BME280;59503;53.486;10.196;2023-04-30T10:21:51;102512.31;;;18.37;31.83
71666;BME280;59503;53.486;10.196;2023-04-30T10:24:18;102528.22;;;17.54;31.89
71666;BME280;59503;53.486;10.196;2023-04-30T10:26:45;102526.41;;;17.42;31.74
71666;BME280;59503;53.486;10.196;2023-04-30T10:29:15;102523.09;;;17.14;33.21
71666;BME280;59503;53.486;10.196;2023-04-30T10:31:44;102513.50;;;16.85;33.89
71666;BME280;59503;53.486;10.196;2023-04-30T10:36:48;102512.78;;;17.07;35.08
71666;BME280;59503;53.486;10.196;2023-04-30T10:39:17;102502.81;;;16.80;34.71
71666;BME280;59503;53.486;10.196;2023-04-30T10:41:46;102504.22;;;16.55;33.46
71666;BME280;59503;53.486;10.196;2023-04-30T10:44:13;102498.84;;;16.78;33.62
71666;BME280;59503;53.486;10.196;2023-04-30T10:46:39;102501.66;;;16.81;33.29
71666;BME280;59503;53.486;10.196;2023-04-30T10:49:04;102498.63;;;16.86;32.69
71666;BME280;59503;53.486;10.196;2023-04-30T10:51:49;102495.56;;;16.72;33.48
71666;BME280;59503;53.486;10.196;2023-04-30T10:54:30;102491.16;;;16.68;34.46
71666;BME280;59503;53.486;10.196;2023-04-30T10:57:15;102498.09;;;16.81;34.29
71666;BME280;59503;53.486;10.196;2023-04-30T11:00:19;102487.41;;;16.76;34.90
71666;BME280;59503;53.486;10.196;2023-04-30T11:02:48;102493.44;;;16.47;34.56
71666;BME280;59503;53.486;10.196;2023-04-30T11:05:19;102484.06;;;16.32;35.00
71666;BME280;59503;53.486;10.196;2023-04-30T11:08:04;102472.75;;;15.68;35.79
71666;BME280;59503;53.486;10.196;2023-04-30T11:10:34;102493.06;;;16.13;35.88
71666;BME280;59503;53.486;10.196;2023-04-30T11:13:05;102479.13;;;16.38;34.64
71666;BME280;59503;53.486;10.196;2023-04-30T11:15:41;102483.78;;;16.91;34.31
71666;BME280;59503;53.486;10.196;2023-04-30T11:18:09;102483.84;;;16.75;33.22
71666;BME280;59503;53.486;10.196;2023-04-30T11:20:39;102483.13;;;16.97;33.15
71666;BME280;59503;53.486;10.196;2023-04-30T11:23:09;102479.09;;;17.52;32.63
71666;BME280;59503;53.486;10.196;2023-04-30T11:25:39;102480.38;;;17.58;32.91
71666;BME280;59503;53.486;10.196;2023-04-30T11:28:06;102480.69;;;17.76;32.00
71666;BME280;59503;53.486;10.196;2023-04-30T11:30:31;102478.69;;;17.31;32.13
71666;BME280;59503;53.486;10.196;2023-04-30T11:32:58;102485.06;;;17.80;30.81
71666;BME280;59503;53.486;10.196;2023-04-30T11:35:23;102471.25;;;17.54;33.77
71666;BME280;59503;53.486;10.196;2023-04-30T11:37:53;102466.06;;;17.07;34.09
71666;BME280;59503;53.486;10.196;2023-04-30T11:40:19;102471.34;;;16.97;33.48
71666;BME280;59503;53.486;10.196;2023-04-30T11:42:45;102459.31;;;17.92;31.43
71666;BME280;59503;53.486;10.196;2023-04-30T11:45:16;102467.16;;;18.16;31.61
71666;BME280;59503;53.486;10.196;2023-04-30T11:47:44;102462.88;;;18.78;31.60
71666;BME280;59503;53.486;10.196;2023-04-30T11:50:12;102458.53;;;18.77;30.49
71666;BME280;59503;53.486;10.196;2023-04-30T11:52:39;102453.78;;;19.07;30.00
71666;BME280;59503;53.486;10.196;2023-04-30T11:55:25;102458.72;;;18.58;31.08
71666;BME280;59503;53.486;10.196;2023-04-30T11:57:53;102454.66;;;17.96;31.13
71666;BME280;59503;53.486;10.196;2023-04-30T12:00:30;102456.38;;;18.93;29.78
71666;BME280;59503;53.486;10.196;2023-04-30T12:02:58;102458.19;;;19.15;29.63
71666;BME280;59503;53.486;10.196;2023-04-30T12:05:26;102457.81;;;19.16;29.65
71666;BME280;59503;53.486;10.196;2023-04-30T12:10:22;102448.88;;;18.30;31.81
71666;BME280;59503;53.486;10.196;2023-04-30T12:12:48;102449.34;;;18.66;30.28
71666;BME280;59503;53.486;10.196;2023-04-30T12:15:19;102442.09;;;18.84;29.12
71666;BME280;59503;53.486;10.196;2023-04-30T12:17:47;102447.34;;;19.32;30.82
71666;BME280;59503;53.486;10.196;2023-04-30T12:20:14;102443.94;;;19.46;30.08
71666;BME280;59503;53.486;10.196;2023-04-30T12:22:41;102432.66;;;19.61;29.18
71666;BME280;59503;53.486;10.196;2023-04-30T12:25:10;102429.31;;;19.89;29.41
71666;BME280;59503;53.486;10.196;2023-04-30T12:27:38;102426.13;;;19.00;29.53
71666;BME280;59503;53.486;10.196;2023-04-30T12:30:08;102428.56;;;19.96;29.17
71666;BME280;59503;53.486;10.196;2023-04-30T12:32:44;102429.09;;;19.61;29.20
71666;BME280;59503;53.486;10.196;2023-04-30T12:35:17;102417.66;;;19.19;29.73
71666;BME280;59503;53.486;10.196;2023-04-30T12:37:44;102424.81;;;18.87;30.13
71666;BME280;59503;53.486;10.196;2023-04-30T12:40:11;102428.38;;;18.54;29.89
71666;BME280;59503;53.486;10.196;2023-04-30T12:42:37;102415.97;;;18.71;30.03
71666;BME280;59503;53.486;10.196;2023-04-30T12:45:03;102419.72;;;18.55;29.80
71666;BME280;59503;53.486;10.196;2023-04-30T12:47:29;102426.44;;;18.91;29.33
71666;BME280;59503;53.486;10.196;2023-04-30T12:49:54;102426.47;;;19.31;30.03
71666;BME280;59503;53.486;10.196;2023-04-30T12:52:23;102417.91;;;19.94;28.40
71666;BME280;59503;53.486;10.196;2023-04-30T12:54:49;102418.69;;;20.66;27.13
71666;BME280;59503;53.486;10.196;2023-04-30T12:57:14;102412.09;;;21.10;26.45
71666;BME280;59503;53.486;10.196;2023-04-30T13:00:00;102410.88;;;20.96;26.51
71666;BME280;59503;53.486;10.196;2023-04-30T13:02:29;102405.03;;;20.16;28.24
71666;BME280;59503;53.486;10.196;2023-04-30T13:04:56;102399.44;;;20.05;27.80
71666;BME280;59503;53.486;10.196;2023-04-30T13:07:21;102400.13;;;19.92;27.83
71666;BME280;59503;53.486;10.196;2023-04-30T13:09:47;102395.28;;;20.36;27.57
71666;BME280;59503;53.486;10.196;2023-04-30T13:12:12;102388.75;;;20.89;26.39
71666;BME280;59503;53.486;10.196;2023-04-30T13:14:38;102389.41;;;20.51;26.84
71666;BME280;59503;53.486;10.196;2023-04-30T13:17:03;102392.59;;;20.57;26.64
71666;BME280;59503;53.486;10.196;2023-04-30T13:19:31;102394.63;;;19.95;26.56
71666;BME280;59503;53.486;10.196;2023-04-30T13:21:56;102389.19;;;20.13;26.44
71666;BME280;59503;53.486;10.196;2023-04-30T13:24:23;102392.69;;;19.96;27.62
71666;BME280;59503;53.486;10.196;2023-04-30T13:26:48;102387.78;;;20.40;27.09
71666;BME280;59503;53.486;10.196;2023-04-30T13:29:14;102384.34;;;20.71;26.14